sensor_id;sensor_type;location;lat;lon;timestamp;P1;durP1;ratioP1;P2;durP2;ratioP2
71769;SDS011;66386;52.122;5.420;2023-04-09T00:01:12;29.95;;;13.32;;
71769;SDS011;66386;52.122;5.420;2023-04-09T00:03:38;32.13;;;14.23;;
71769;SDS011;66386;52.122;5.420;2023-04-09T00:06:05;32.45;;;13.60;;
71769;SDS011;66386;52.122;5.420;2023-04-09T00:08:32;29.10;;;13.57;;
71769;SDS011;66386;52.122;5.420;2023-04-09T00:10:59;31.02;;;14.05;;
71769;SDS011;66386;52.122;5.420;2023-04-09T00:13:25;30.65;;;13.40;;
71769;SDS011;66386;52.122;5.420;2023-04-09T00:16:04;31.77;;;13.73;;
71769;SDS011;66386;52.122;5.420;2023-04-09T00:18:31;34.90;;;15.13;;
71769;SDS011;66386;52.122;5.420;2023-04-09T00:20:58;32.08;;;14.45;;
71769;SDS011;66386;52.122;5.420;2023-04-09T00:23:24;31.85;;;14.40;;
71769;SDS011;66386;52.122;5.420;2023-04-09T00:25:50;29.52;;;13.85;;
71769;SDS011;66386;52.122;5.420;2023-04-09T00:28:17;30.63;;;13.27;;
71769;SDS011;66386;52.122;5.420;2023-04-09T00:30:43;31.70;;;14.68;;
71769;SDS011;66386;52.122;5.420;2023-04-09T00:33:10;31.55;;;13.48;;
71769;SDS011;66386;52.122;5.420;2023-04-09T00:35:36;33.70;;;14.48;;
71769;SDS011;66386;52.122;5.420;2023-04-09T00:38:03;35.63;;;14.90;;
71769;SDS011;66386;52.122;5.420;2023-04-09T00:40:29;32.37;;;15.20;;
71769;SDS011;66386;52.122;5.420;2023-04-09T00:42:56;32.58;;;13.63;;
71769;SDS011;66386;52.122;5.420;2023-04-09T00:45:22;33.97;;;14.27;;
71769;SDS011;66386;52.122;5.420;2023-04-09T00:47:49;33.13;;;13.35;;
71769;SDS011;66386;52.122;5.420;2023-04-09T00:50:16;28.10;;;12.98;;
71769;SDS011;66386;52.122;5.420;2023-04-09T00:52:42;27.20;;;12.50;;
71769;SDS011;66386;52.122;5.420;2023-04-09T00:55:09;34.70;;;13.98;;
71769;SDS011;66386;52.122;5.420;2023-04-09T00:57:37;28.38;;;13.90;;
71769;SDS011;66386;52.122;5.420;2023-04-09T01:00:04;32.22;;;14.18;;
71769;SDS011;66386;52.122;5.420;2023-04-09T01:02:32;30.42;;;14.00;;
71769;SDS011;66386;52.122;5.420;2023-04-09T01:05:00;34.47;;;14.23;;
71769;SDS011;66386;52.122;5.420;2023-04-09T01:07:30;33.35;;;14.38;;
71769;SDS011;66386;52.122;5.420;2023-04-09T01:10:04;30.60;;;14.48;;
71769;SDS011;66386;52.122;5.420;2023-04-09T01:13:15;29.20;;;13.10;;
71769;SDS011;66386;52.122;5.420;2023-04-09T01:15:53;27.60;;;13.02;;
71769;SDS011;66386;52.122;5.420;2023-04-09T01:18:27;28.17;;;13.33;;
71769;SDS011;66386;52.122;5.420;2023-04-09T01:21:00;26.67;;;14.13;;
71769;SDS011;66386;52.122;5.420;2023-04-09T01:29:10;30.02;;;13.73;;
71769;SDS011;66386;52.122;5.420;2023-04-09T01:31:38;29.03;;;13.13;;
71769;SDS011;66386;52.122;5.420;2023-04-09T01:34:08;32.85;;;14.05;;
71769;SDS011;66386;52.122;5.420;2023-04-09T01:36:36;31.50;;;13.93;;
71769;SDS011;66386;52.122;5.420;2023-04-09T01:39:05;30.95;;;14.32;;
71769;SDS011;66386;52.122;5.420;2023-04-09T01:41:33;30.25;;;13.98;;
71769;SDS011;66386;52.122;5.420;2023-04-09T01:44:01;29.13;;;13.27;;
71769;SDS011;66386;52.122;5.420;2023-04-09T01:46:30;33.38;;;14.25;;
71769;SDS011;66386;52.122;5.420;2023-04-09T01:48:59;31.83;;;14.27;;
71769;SDS011;66386;52.122;5.420;2023-04-09T01:51:26;34.13;;;14.82;;
71769;SDS011;66386;52.122;5.420;2023-04-09T01:53:54;32.08;;;15.15;;
71769;SDS011;66386;52.122;5.420;2023-04-09T01:56:21;29.73;;;14.43;;
71769;SDS011;66386;52.122;5.420;2023-04-09T01:58:48;32.22;;;14.27;;
71769;SDS011;66386;52.122;5.420;2023-04-09T02:03:59;32.60;;;14.52;;
71769;SDS011;66386;52.122;5.420;2023-04-09T02:06:43;31.98;;;14.20;;
71769;SDS011;66386;52.122;5.420;2023-04-09T02:09:27;33.40;;;14.43;;
71769;SDS011;66386;52.122;5.420;2023-04-09T02:11:56;32.13;;;14.73;;
71769;SDS011;66386;52.122;5.420;2023-04-09T02:14:26;29.25;;;13.65;;
71769;SDS011;66386;52.122;5.420;2023-04-09T02:16:53;31.58;;;13.85;;
71769;SDS011;66386;52.122;5.420;2023-04-09T02:19:20;28.42;;;13.63;;
71769;SDS011;66386;52.122;5.420;2023-04-09T02:21:46;37.10;;;14.53;;
71769;SDS011;66386;52.122;5.420;2023-04-09T02:24:12;32.65;;;14.15;;
71769;SDS011;66386;52.122;5.420;2023-04-09T02:26:39;29.75;;;14.20;;
71769;SDS011;66386;52.122;5.420;2023-04-09T02:29:05;33.45;;;14.07;;
71769;SDS011;66386;52.122;5.420;2023-04-09T02:31:32;34.05;;;16.00;;
71769;SDS011;66386;52.122;5.420;2023-04-09T02:33:58;33.63;;;14.73;;
71769;SDS011;66386;52.122;5.420;2023-04-09T02:36:25;31.15;;;14.02;;
71769;SDS011;66386;52.122;5.420;2023-04-09T02:38:52;29.13;;;13.80;;
71769;SDS011;66386;52.122;5.420;2023-04-09T02:41:19;32.42;;;13.80;;
71769;SDS011;66386;52.122;5.420;2023-04-09T02:43:46;33.42;;;14.27;;
71769;SDS011;66386;52.122;5.420;2023-04-09T02:46:12;29.23;;;14.87;;
71769;SDS011;66386;52.122;5.420;2023-04-09T02:48:39;29.65;;;14.77;;
71769;SDS011;66386;52.122;5.420;2023-04-09T02:51:05;34.45;;;15.00;;
71769;SDS011;66386;52.122;5.420;2023-04-09T02:53:32;33.08;;;14.95;;
71769;SDS011;66386;52.122;5.420;2023-04-09T02:55:58;35.72;;;15.43;;
71769;SDS011;66386;52.122;5.420;2023-04-09T02:58:25;27.87;;;14.23;;
71769;SDS011;66386;52.122;5.420;2023-04-09T03:00:51;31.67;;;14.50;;
71769;SDS011;66386;52.122;5.420;2023-04-09T03:03:17;31.75;;;13.60;;
71769;SDS011;66386;52.122;5.420;2023-04-09T03:05:44;32.92;;;14.48;;
71769;SDS011;66386;52.122;5.420;2023-04-09T03:08:11;31.58;;;14.43;;
71769;SDS011;66386;52.122;5.420;2023-04-09T03:10:38;31.07;;;14.40;;
71769;SDS011;66386;52.122;5.420;2023-04-09T03:13:04;35.20;;;14.75;;
71769;SDS011;66386;52.122;5.420;2023-04-09T03:15:31;31.67;;;14.43;;
71769;SDS011;66386;52.122;5.420;2023-04-09T03:17:57;31.20;;;14.40;;
71769;SDS011;66386;52.122;5.420;2023-04-09T03:20:23;28.50;;;13.57;;
71769;SDS011;66386;52.122;5.420;2023-04-09T03:22:50;31.13;;;14.93;;
71769;SDS011;66386;52.122;5.420;2023-04-09T03:25:16;31.85;;;15.30;;
71769;SDS011;66386;52.122;5.420;2023-04-09T03:27:44;26.48;;;12.90;;
71769;SDS011;66386;52.122;5.420;2023-04-09T03:30:11;28.35;;;14.40;;
71769;SDS011;66386;52.122;5.420;2023-04-09T03:32:38;29.23;;;13.90;;
71769;SDS011;66386;52.122;5.420;2023-04-09T03:35:04;31.07;;;13.90;;
71769;SDS011;66386;52.122;5.420;2023-04-09T03:37:31;27.48;;;13.02;;
71769;SDS011;66386;52.122;5.420;2023-04-09T03:39:57;28.05;;;13.32;;
71769;SDS011;66386;52.122;5.420;2023-04-09T03:42:24;30.58;;;14.00;;
71769;SDS011;66386;52.122;5.420;2023-04-09T03:44:52;30.73;;;14.15;;
71769;SDS011;66386;52.122;5.420;2023-04-09T03:47:19;28.10;;;13.23;;
71769;SDS011;66386;52.122;5.420;2023-04-09T03:49:45;28.70;;;13.00;;
71769;SDS011;66386;52.122;5.420;2023-04-09T03:52:12;26.55;;;12.73;;
71769;SDS011;66386;52.122;5.420;2023-04-09T03:54:39;26.20;;;13.90;;
71769;SDS011;66386;52.122;5.420;2023-04-09T03:57:05;28.85;;;13.90;;
71769;SDS011;66386;52.122;5.420;2023-04-09T03:59:32;24.83;;;12.87;;
71769;SDS011;66386;52.122;5.420;2023-04-09T04:01:58;31.45;;;14.07;;
71769;SDS011;66386;52.122;5.420;2023-04-09T04:04:25;27.13;;;13.70;;
71769;SDS011;66386;52.122;5.420;2023-04-09T04:06:51;33.47;;;13.73;;
71769;SDS011;66386;52.122;5.420;2023-04-09T04:09:18;29.92;;;13.45;;
71769;SDS011;66386;52.122;5.420;2023-04-09T04:11:44;31.43;;;13.47;;
71769;SDS011;66386;52.122;5.420;2023-04-09T04:14:10;29.80;;;12.82;;
71769;SDS011;66386;52.122;5.420;2023-04-09T04:16:38;29.73;;;13.80;;
71769;SDS011;66386;52.122;5.420;2023-04-09T04:19:06;24.13;;;12.00;;
71769;SDS011;66386;52.122;5.420;2023-04-09T04:21:32;28.70;;;15.75;;
71769;SDS011;66386;52.122;5.420;2023-04-09T04:23:59;30.70;;;14.40;;
71769;SDS011;66386;52.122;5.420;2023-04-09T04:26:26;27.95;;;14.40;;
71769;SDS011;66386;52.122;5.420;2023-04-09T04:28:52;27.10;;;14.00;;
71769;SDS011;66386;52.122;5.420;2023-04-09T04:31:19;26.92;;;13.07;;
71769;SDS011;66386;52.122;5.420;2023-04-09T04:33:45;27.80;;;13.40;;
71769;SDS011;66386;52.122;5.420;2023-04-09T04:36:12;30.63;;;12.93;;
71769;SDS011;66386;52.122;5.420;2023-04-09T04:38:39;30.10;;;14.13;;
71769;SDS011;66386;52.122;5.420;2023-04-09T04:41:09;29.98;;;13.70;;
71769;SDS011;66386;52.122;5.420;2023-04-09T04:43:36;30.52;;;13.75;;
71769;SDS011;66386;52.122;5.420;2023-04-09T04:46:02;25.88;;;12.85;;
71769;SDS011;66386;52.122;5.420;2023-04-09T04:48:29;28.70;;;14.53;;
71769;SDS011;66386;52.122;5.420;2023-04-09T04:50:57;27.92;;;12.98;;
71769;SDS011;66386;52.122;5.420;2023-04-09T04:53:24;28.00;;;13.75;;
71769;SDS011;66386;52.122;5.420;2023-04-09T04:55:51;27.25;;;12.50;;
71769;SDS011;66386;52.122;5.420;2023-04-09T04:58:18;29.13;;;14.18;;
71769;SDS011;66386;52.122;5.420;2023-04-09T05:00:45;28.33;;;13.00;;
71769;SDS011;66386;52.122;5.420;2023-04-09T05:03:11;28.90;;;13.05;;
71769;SDS011;66386;52.122;5.420;2023-04-09T05:05:38;27.48;;;13.57;;
71769;SDS011;66386;52.122;5.420;2023-04-09T05:08:05;28.90;;;14.00;;
71769;SDS011;66386;52.122;5.420;2023-04-09T05:10:32;28.75;;;13.65;;
71769;SDS011;66386;52.122;5.420;2023-04-09T05:12:58;28.07;;;12.57;;
71769;SDS011;66386;52.122;5.420;2023-04-09T05:15:24;25.75;;;13.35;;
71769;SDS011;66386;52.122;5.420;2023-04-09T05:17:51;29.40;;;14.32;;
71769;SDS011;66386;52.122;5.420;2023-04-09T05:20:17;29.13;;;14.52;;
71769;SDS011;66386;52.122;5.420;2023-04-09T05:22:44;30.65;;;14.73;;
71769;SDS011;66386;52.122;5.420;2023-04-09T05:25:10;30.97;;;13.83;;
71769;SDS011;66386;52.122;5.420;2023-04-09T05:27:37;27.05;;;13.68;;
71769;SDS011;66386;52.122;5.420;2023-04-09T05:30:03;26.63;;;12.73;;
71769;SDS011;66386;52.122;5.420;2023-04-09T05:32:30;31.05;;;13.23;;
71769;SDS011;66386;52.122;5.420;2023-04-09T05:34:56;30.65;;;14.57;;
71769;SDS011;66386;52.122;5.420;2023-04-09T05:37:23;30.10;;;13.40;;
71769;SDS011;66386;52.122;5.420;2023-04-09T05:39:49;28.25;;;14.32;;
71769;SDS011;66386;52.122;5.420;2023-04-09T05:42:16;33.35;;;14.77;;
71769;SDS011;66386;52.122;5.420;2023-04-09T05:44:42;29.48;;;15.02;;
71769;SDS011;66386;52.122;5.420;2023-04-09T05:47:08;33.30;;;15.93;;
71769;SDS011;66386;52.122;5.420;2023-04-09T05:49:35;31.23;;;15.40;;
71769;SDS011;66386;52.122;5.420;2023-04-09T05:52:02;35.22;;;17.08;;
71769;SDS011;66386;52.122;5.420;2023-04-09T05:54:29;33.15;;;15.60;;
71769;SDS011;66386;52.122;5.420;2023-04-09T05:56:56;34.38;;;16.58;;
71769;SDS011;66386;52.122;5.420;2023-04-09T05:59:23;36.20;;;16.35;;
71769;SDS011;66386;52.122;5.420;2023-04-09T06:01:49;34.17;;;15.33;;
71769;SDS011;66386;52.122;5.420;2023-04-09T06:04:16;33.13;;;16.17;;
71769;SDS011;66386;52.122;5.420;2023-04-09T06:06:42;38.20;;;17.52;;
71769;SDS011;66386;52.122;5.420;2023-04-09T06:09:09;36.78;;;16.27;;
71769;SDS011;66386;52.122;5.420;2023-04-09T06:11:35;33.95;;;16.60;;
71769;SDS011;66386;52.122;5.420;2023-04-09T06:14:02;35.40;;;15.57;;
71769;SDS011;66386;52.122;5.420;2023-04-09T06:16:28;36.10;;;16.58;;
71769;SDS011;66386;52.122;5.420;2023-04-09T06:18:54;34.47;;;16.63;;
71769;SDS011;66386;52.122;5.420;2023-04-09T06:21:22;35.15;;;15.75;;
71769;SDS011;66386;52.122;5.420;2023-04-09T06:23:48;34.92;;;16.60;;
71769;SDS011;66386;52.122;5.420;2023-04-09T06:26:15;30.83;;;15.70;;
71769;SDS011;66386;52.122;5.420;2023-04-09T06:28:42;29.90;;;14.98;;
71769;SDS011;66386;52.122;5.420;2023-04-09T06:31:09;26.55;;;13.32;;
71769;SDS011;66386;52.122;5.420;2023-04-09T06:33:35;30.23;;;14.60;;
71769;SDS011;66386;52.122;5.420;2023-04-09T06:36:02;27.52;;;13.98;;
71769;SDS011;66386;52.122;5.420;2023-04-09T06:38:28;32.53;;;14.70;;
71769;SDS011;66386;52.122;5.420;2023-04-09T06:40:55;27.83;;;14.32;;
71769;SDS011;66386;52.122;5.420;2023-04-09T06:43:22;27.98;;;13.80;;
71769;SDS011;66386;52.122;5.420;2023-04-09T06:45:48;25.33;;;12.82;;
71769;SDS011;66386;52.122;5.420;2023-04-09T06:48:15;25.60;;;12.80;;
71769;SDS011;66386;52.122;5.420;2023-04-09T06:50:42;24.23;;;12.87;;
71769;SDS011;66386;52.122;5.420;2023-04-09T06:53:09;27.10;;;13.27;;
71769;SDS011;66386;52.122;5.420;2023-04-09T06:55:35;28.00;;;13.20;;
71769;SDS011;66386;52.122;5.420;2023-04-09T06:58:02;24.52;;;13.68;;
71769;SDS011;66386;52.122;5.420;2023-04-09T07:00:29;28.75;;;13.23;;
71769;SDS011;66386;52.122;5.420;2023-04-09T07:02:56;25.57;;;12.90;;
71769;SDS011;66386;52.122;5.420;2023-04-09T07:05:23;23.48;;;11.57;;
71769;SDS011;66386;52.122;5.420;2023-04-09T07:07:49;24.58;;;12.88;;
71769;SDS011;66386;52.122;5.420;2023-04-09T07:10:16;27.23;;;12.95;;
71769;SDS011;66386;52.122;5.420;2023-04-09T07:12:42;23.98;;;12.85;;
71769;SDS011;66386;52.122;5.420;2023-04-09T07:15:08;25.27;;;11.93;;
71769;SDS011;66386;52.122;5.420;2023-04-09T07:17:35;22.52;;;11.57;;
71769;SDS011;66386;52.122;5.420;2023-04-09T07:20:02;23.80;;;12.45;;
71769;SDS011;66386;52.122;5.420;2023-04-09T07:22:29;24.48;;;12.27;;
71769;SDS011;66386;52.122;5.420;2023-04-09T07:24:56;21.52;;;12.25;;
71769;SDS011;66386;52.122;5.420;2023-04-09T07:27:23;22.93;;;12.80;;
71769;SDS011;66386;52.122;5.420;2023-04-09T07:29:53;23.50;;;11.95;;
71769;SDS011;66386;52.122;5.420;2023-04-09T07:32:24;22.70;;;12.18;;
71769;SDS011;66386;52.122;5.420;2023-04-09T07:34:52;21.67;;;12.43;;
71769;SDS011;66386;52.122;5.420;2023-04-09T07:37:19;21.13;;;12.35;;
71769;SDS011;66386;52.122;5.420;2023-04-09T07:39:46;21.43;;;11.50;;
71769;SDS011;66386;52.122;5.420;2023-04-09T07:42:13;22.75;;;12.13;;
71769;SDS011;66386;52.122;5.420;2023-04-09T07:44:40;21.42;;;12.05;;
71769;SDS011;66386;52.122;5.420;2023-04-09T07:47:06;20.98;;;11.90;;
71769;SDS011;66386;52.122;5.420;2023-04-09T07:49:36;22.33;;;12.10;;
71769;SDS011;66386;52.122;5.420;2023-04-09T07:52:05;23.97;;;12.63;;
71769;SDS011;66386;52.122;5.420;2023-04-09T07:54:33;19.60;;;11.80;;
71769;SDS011;66386;52.122;5.420;2023-04-09T07:57:00;22.92;;;12.60;;
71769;SDS011;66386;52.122;5.420;2023-04-09T07:59:27;23.15;;;12.60;;
71769;SDS011;66386;52.122;5.420;2023-04-09T08:01:55;24.63;;;13.13;;
71769;SDS011;66386;52.122;5.420;2023-04-09T08:04:22;22.30;;;12.90;;
71769;SDS011;66386;52.122;5.420;2023-04-09T08:06:49;20.60;;;12.65;;
71769;SDS011;66386;52.122;5.420;2023-04-09T08:09:16;23.60;;;12.85;;
71769;SDS011;66386;52.122;5.420;2023-04-09T08:11:43;22.50;;;13.23;;
71769;SDS011;66386;52.122;5.420;2023-04-09T08:14:14;21.63;;;12.70;;
71769;SDS011;66386;52.122;5.420;2023-04-09T08:16:43;22.10;;;13.23;;
71769;SDS011;66386;52.122;5.420;2023-04-09T08:19:11;23.17;;;13.52;;
71769;SDS011;66386;52.122;5.420;2023-04-09T08:21:38;22.92;;;13.23;;
71769;SDS011;66386;52.122;5.420;2023-04-09T08:24:09;20.88;;;13.15;;
71769;SDS011;66386;52.122;5.420;2023-04-09T08:26:37;22.13;;;13.65;;
71769;SDS011;66386;52.122;5.420;2023-04-09T08:29:04;21.13;;;12.77;;
71769;SDS011;66386;52.122;5.420;2023-04-09T08:31:31;20.52;;;12.45;;
71769;SDS011;66386;52.122;5.420;2023-04-09T08:33:58;23.40;;;12.82;;
71769;SDS011;66386;52.122;5.420;2023-04-09T08:36:24;21.77;;;14.40;;
71769;SDS011;66386;52.122;5.420;2023-04-09T08:38:51;24.35;;;14.65;;
71769;SDS011;66386;52.122;5.420;2023-04-09T08:41:24;20.93;;;13.33;;
71769;SDS011;66386;52.122;5.420;2023-04-09T08:43:53;23.83;;;14.52;;
71769;SDS011;66386;52.122;5.420;2023-04-09T08:46:24;26.40;;;14.68;;
71769;SDS011;66386;52.122;5.420;2023-04-09T08:48:51;25.35;;;14.88;;
71769;SDS011;66386;52.122;5.420;2023-04-09T08:51:19;21.67;;;14.60;;
71769;SDS011;66386;52.122;5.420;2023-04-09T08:53:59;24.50;;;14.93;;
71769;SDS011;66386;52.122;5.420;2023-04-09T08:56:30;24.02;;;14.90;;
71769;SDS011;66386;52.122;5.420;2023-04-09T08:58:57;27.17;;;16.38;;
71769;SDS011;66386;52.122;5.420;2023-04-09T09:01:27;26.30;;;16.27;;
71769;SDS011;66386;52.122;5.420;2023-04-09T09:04:04;24.98;;;15.55;;
71769;SDS011;66386;52.122;5.420;2023-04-09T09:06:36;24.10;;;15.83;;
71769;SDS011;66386;52.122;5.420;2023-04-09T09:11:45;24.70;;;17.02;;
71769;SDS011;66386;52.122;5.420;2023-04-09T09:14:14;23.23;;;16.13;;
71769;SDS011;66386;52.122;5.420;2023-04-09T09:16:42;23.58;;;17.20;;
71769;SDS011;66386;52.122;5.420;2023-04-09T09:19:30;25.93;;;17.53;;
71769;SDS011;66386;52.122;5.420;2023-04-09T09:22:02;27.05;;;17.95;;
71769;SDS011;66386;52.122;5.420;2023-04-09T09:24:30;26.25;;;18.70;;
71769;SDS011;66386;52.122;5.420;2023-04-09T09:27:00;26.45;;;18.77;;
71769;SDS011;66386;52.122;5.420;2023-04-09T09:29:27;24.17;;;17.55;;
71769;SDS011;66386;52.122;5.420;2023-04-09T09:31:54;31.20;;;18.80;;
71769;SDS011;66386;52.122;5.420;2023-04-09T09:34:22;22.27;;;17.20;;
71769;SDS011;66386;52.122;5.420;2023-04-09T09:36:49;26.70;;;18.38;;
71769;SDS011;66386;52.122;5.420;2023-04-09T09:39:16;27.90;;;17.25;;
71769;SDS011;66386;52.122;5.420;2023-04-09T09:41:44;24.23;;;15.93;;
71769;SDS011;66386;52.122;5.420;2023-04-09T09:44:12;23.10;;;15.93;;
71769;SDS011;66386;52.122;5.420;2023-04-09T09:46:56;22.25;;;15.45;;
71769;SDS011;66386;52.122;5.420;2023-04-09T09:49:23;23.00;;;15.52;;
71769;SDS011;66386;52.122;5.420;2023-04-09T09:51:50;24.42;;;16.08;;
71769;SDS011;66386;52.122;5.420;2023-04-09T09:54:21;24.58;;;17.02;;
71769;SDS011;66386;52.122;5.420;2023-04-09T09:56:51;22.70;;;15.10;;
71769;SDS011;66386;52.122;5.420;2023-04-09T09:59:25;23.15;;;15.52;;
71769;SDS011;66386;52.122;5.420;2023-04-09T10:01:58;22.73;;;15.02;;
71769;SDS011;66386;52.122;5.420;2023-04-09T10:04:30;24.60;;;15.98;;
71769;SDS011;66386;52.122;5.420;2023-04-09T10:07:01;21.00;;;15.02;;
71769;SDS011;66386;52.122;5.420;2023-04-09T10:09:31;21.00;;;15.03;;
71769;SDS011;66386;52.122;5.420;2023-04-09T10:12:00;23.02;;;14.43;;
71769;SDS011;66386;52.122;5.420;2023-04-09T10:14:30;21.65;;;14.05;;
71769;SDS011;66386;52.122;5.420;2023-04-09T10:16:56;22.55;;;13.15;;
71769;SDS011;66386;52.122;5.420;2023-04-09T10:19:23;21.10;;;13.77;;
71769;SDS011;66386;52.122;5.420;2023-04-09T10:21:55;19.73;;;13.13;;
71769;SDS011;66386;52.122;5.420;2023-04-09T10:24:26;21.30;;;13.10;;
71769;SDS011;66386;52.122;5.420;2023-04-09T10:26:53;21.30;;;13.07;;
71769;SDS011;66386;52.122;5.420;2023-04-09T10:29:26;19.77;;;12.15;;
71769;SDS011;66386;52.122;5.420;2023-04-09T10:32:05;21.23;;;13.70;;
71769;SDS011;66386;52.122;5.420;2023-04-09T10:34:36;21.17;;;13.60;;
71769;SDS011;66386;52.122;5.420;2023-04-09T10:37:07;19.80;;;13.10;;
71769;SDS011;66386;52.122;5.420;2023-04-09T10:39:39;20.45;;;13.00;;
71769;SDS011;66386;52.122;5.420;2023-04-09T10:42:13;21.52;;;13.80;;
71769;SDS011;66386;52.122;5.420;2023-04-09T10:44:43;21.00;;;13.40;;
71769;SDS011;66386;52.122;5.420;2023-04-09T10:47:11;20.37;;;13.57;;
71769;SDS011;66386;52.122;5.420;2023-04-09T10:49:56;18.92;;;12.48;;
71769;SDS011;66386;52.122;5.420;2023-04-09T10:52:22;19.80;;;12.57;;
71769;SDS011;66386;52.122;5.420;2023-04-09T10:54:55;19.67;;;13.35;;
71769;SDS011;66386;52.122;5.420;2023-04-09T10:57:22;17.58;;;11.82;;
71769;SDS011;66386;52.122;5.420;2023-04-09T10:59:53;17.83;;;11.90;;
71769;SDS011;66386;52.122;5.420;2023-04-09T11:10:36;15.90;;;10.05;;
71769;SDS011;66386;52.122;5.420;2023-04-09T11:13:04;16.57;;;10.57;;
71769;SDS011;66386;52.122;5.420;2023-04-09T11:15:31;15.52;;;10.98;;
71769;SDS011;66386;52.122;5.420;2023-04-09T11:18:01;15.15;;;9.98;;
71769;SDS011;66386;52.122;5.420;2023-04-09T11:20:28;12.95;;;8.88;;
71769;SDS011;66386;52.122;5.420;2023-04-09T11:22:56;10.38;;;8.10;;
71769;SDS011;66386;52.122;5.420;2023-04-09T11:25:24;11.73;;;8.13;;
71769;SDS011;66386;52.122;5.420;2023-04-09T11:27:53;14.82;;;9.65;;
71769;SDS011;66386;52.122;5.420;2023-04-09T11:30:20;14.85;;;8.00;;
71769;SDS011;66386;52.122;5.420;2023-04-09T11:32:46;10.43;;;7.63;;
71769;SDS011;66386;52.122;5.420;2023-04-09T11:35:14;10.82;;;7.18;;
71769;SDS011;66386;52.122;5.420;2023-04-09T11:37:47;21.17;;;7.53;;
71769;SDS011;66386;52.122;5.420;2023-04-09T11:40:24;12.10;;;7.40;;
71769;SDS011;66386;52.122;5.420;2023-04-09T11:42:54;17.05;;;9.10;;
71769;SDS011;66386;52.122;5.420;2023-04-09T11:45:25;14.57;;;7.95;;
71769;SDS011;66386;52.122;5.420;2023-04-09T11:47:53;9.68;;;7.63;;
71769;SDS011;66386;52.122;5.420;2023-04-09T11:50:21;11.60;;;7.20;;
71769;SDS011;66386;52.122;5.420;2023-04-09T11:52:48;13.27;;;7.43;;
71769;SDS011;66386;52.122;5.420;2023-04-09T11:55:22;10.40;;;7.50;;
71769;SDS011;66386;52.122;5.420;2023-04-09T11:57:51;11.55;;;7.93;;
71769;SDS011;66386;52.122;5.420;2023-04-09T12:00:19;10.55;;;7.70;;
71769;SDS011;66386;52.122;5.420;2023-04-09T12:02:47;10.87;;;7.03;;
71769;SDS011;66386;52.122;5.420;2023-04-09T12:05:22;9.15;;;7.13;;
71769;SDS011;66386;52.122;5.420;2023-04-09T12:07:57;10.30;;;7.75;;
71769;SDS011;66386;52.122;5.420;2023-04-09T12:10:25;9.13;;;6.95;;
71769;SDS011;66386;52.122;5.420;2023-04-09T12:12:53;10.27;;;7.22;;
71769;SDS011;66386;52.122;5.420;2023-04-09T12:15:20;9.23;;;6.77;;
71769;SDS011;66386;52.122;5.420;2023-04-09T12:17:55;10.00;;;6.80;;
71769;SDS011;66386;52.122;5.420;2023-04-09T12:20:33;9.68;;;6.38;;
71769;SDS011;66386;52.122;5.420;2023-04-09T12:23:01;10.32;;;7.18;;
71769;SDS011;66386;52.122;5.420;2023-04-09T12:25:29;9.80;;;7.07;;
71769;SDS011;66386;52.122;5.420;2023-04-09T12:27:57;9.77;;;7.03;;
71769;SDS011;66386;52.122;5.420;2023-04-09T12:30:24;9.07;;;6.72;;
71769;SDS011;66386;52.122;5.420;2023-04-09T12:32:51;10.35;;;6.70;;
71769;SDS011;66386;52.122;5.420;2023-04-09T12:35:19;9.52;;;6.30;;
71769;SDS011;66386;52.122;5.420;2023-04-09T12:37:47;8.80;;;5.82;;
71769;SDS011;66386;52.122;5.420;2023-04-09T12:40:14;9.33;;;6.50;;
71769;SDS011;66386;52.122;5.420;2023-04-09T12:42:41;9.43;;;6.97;;
71769;SDS011;66386;52.122;5.420;2023-04-09T12:45:09;10.70;;;7.15;;
71769;SDS011;66386;52.122;5.420;2023-04-09T12:47:37;11.57;;;7.03;;
71769;SDS011;66386;52.122;5.420;2023-04-09T12:50:05;11.63;;;7.18;;
71769;SDS011;66386;52.122;5.420;2023-04-09T12:52:33;11.13;;;6.90;;
71769;SDS011;66386;52.122;5.420;2023-04-09T12:55:00;9.70;;;6.78;;
71769;SDS011;66386;52.122;5.420;2023-04-09T12:57:27;8.45;;;6.35;;
71769;SDS011;66386;52.122;5.420;2023-04-09T12:59:53;8.93;;;6.47;;
71769;SDS011;66386;52.122;5.420;2023-04-09T13:02:20;11.57;;;7.47;;
71769;SDS011;66386;52.122;5.420;2023-04-09T13:04:48;10.20;;;6.93;;
71769;SDS011;66386;52.122;5.420;2023-04-09T13:07:16;10.98;;;8.48;;
71769;SDS011;66386;52.122;5.420;2023-04-09T13:09:46;9.95;;;6.97;;
71769;SDS011;66386;52.122;5.420;2023-04-09T13:12:15;10.20;;;7.00;;
71769;SDS011;66386;52.122;5.420;2023-04-09T13:14:42;10.88;;;6.70;;
71769;SDS011;66386;52.122;5.420;2023-04-09T13:17:11;8.87;;;6.50;;
71769;SDS011;66386;52.122;5.420;2023-04-09T13:19:38;8.68;;;6.15;;
71769;SDS011;66386;52.122;5.420;2023-04-09T13:22:07;10.43;;;6.60;;
71769;SDS011;66386;52.122;5.420;2023-04-09T13:24:34;11.75;;;7.22;;
71769;SDS011;66386;52.122;5.420;2023-04-09T13:27:04;10.27;;;7.28;;
71769;SDS011;66386;52.122;5.420;2023-04-09T13:29:31;10.47;;;6.60;;
71769;SDS011;66386;52.122;5.420;2023-04-09T13:31:58;9.50;;;6.47;;
71769;SDS011;66386;52.122;5.420;2023-04-09T13:34:26;10.27;;;6.90;;
71769;SDS011;66386;52.122;5.420;2023-04-09T13:36:53;9.00;;;6.80;;
71769;SDS011;66386;52.122;5.420;2023-04-09T13:39:19;10.10;;;7.43;;
71769;SDS011;66386;52.122;5.420;2023-04-09T13:41:46;12.30;;;7.20;;
71769;SDS011;66386;52.122;5.420;2023-04-09T13:44:12;11.68;;;7.70;;
71769;SDS011;66386;52.122;5.420;2023-04-09T13:46:39;13.20;;;7.20;;
71769;SDS011;66386;52.122;5.420;2023-04-09T13:49:05;10.60;;;7.22;;
71769;SDS011;66386;52.122;5.420;2023-04-09T13:51:32;11.57;;;7.63;;
71769;SDS011;66386;52.122;5.420;2023-04-09T13:53:58;10.67;;;7.20;;
71769;SDS011;66386;52.122;5.420;2023-04-09T13:56:25;11.65;;;7.32;;
71769;SDS011;66386;52.122;5.420;2023-04-09T13:58:52;9.95;;;6.82;;
71769;SDS011;66386;52.122;5.420;2023-04-09T14:01:19;10.18;;;6.22;;
71769;SDS011;66386;52.122;5.420;2023-04-09T14:03:46;11.70;;;6.78;;
71769;SDS011;66386;52.122;5.420;2023-04-09T14:06:12;9.47;;;5.90;;
71769;SDS011;66386;52.122;5.420;2023-04-09T14:08:39;8.98;;;6.78;;
71769;SDS011;66386;52.122;5.420;2023-04-09T14:11:05;8.45;;;5.60;;
71769;SDS011;66386;52.122;5.420;2023-04-09T14:13:32;13.38;;;6.93;;
71769;SDS011;66386;52.122;5.420;2023-04-09T14:15:58;8.52;;;6.47;;
71769;SDS011;66386;52.122;5.420;2023-04-09T14:18:25;7.43;;;5.90;;
71769;SDS011;66386;52.122;5.420;2023-04-09T14:20:52;9.05;;;6.10;;
71769;SDS011;66386;52.122;5.420;2023-04-09T14:23:18;9.77;;;6.05;;
71769;SDS011;66386;52.122;5.420;2023-04-09T14:25:45;9.75;;;6.57;;
71769;SDS011;66386;52.122;5.420;2023-04-09T14:28:11;11.45;;;6.40;;
71769;SDS011;66386;52.122;5.420;2023-04-09T14:30:38;10.20;;;6.90;;
71769;SDS011;66386;52.122;5.420;2023-04-09T14:33:04;9.88;;;6.93;;
71769;SDS011;66386;52.122;5.420;2023-04-09T14:35:31;11.15;;;7.03;;
71769;SDS011;66386;52.122;5.420;2023-04-09T14:37:58;10.18;;;7.15;;
71769;SDS011;66386;52.122;5.420;2023-04-09T14:40:24;10.25;;;7.32;;
71769;SDS011;66386;52.122;5.420;2023-04-09T14:42:51;10.47;;;6.63;;
71769;SDS011;66386;52.122;5.420;2023-04-09T14:45:17;10.48;;;6.78;;
71769;SDS011;66386;52.122;5.420;2023-04-09T14:47:46;9.55;;;7.07;;
71769;SDS011;66386;52.122;5.420;2023-04-09T14:50:13;10.15;;;7.35;;